Sorento, Illinois
Current Conditions -  °F | °C
As of 3:35 AM on Thursday 23 Oct 2014 (Local Time) from K3LF Reporting Station
Clear Clear  
Wind Chill: 33°   Ceiling: Unl
Heat Index: 38°   Visibility: 10mi
Dew Point: 34°   Wind: 6mph
Humidity: 88%   Direction: 130°SE
Pressure: 30.22"   Gusts: NA
Location:  39°N, 89.57°W
Report Text: K3LF 230835Z AUTO 13005KT 10SM CLR 03/01 A3022 RMK AO2 T00310013
Loading
Personal Weather Stations






























Interactive Weather Map
Tropical Storm Tracking
New forecast layout! Learn more

10-Day Weather Forecast

Advertisements
Track Severe Weather on mobile